| Record Date MM/DD/YYYY | Record Time HH:MM:SS | Record Julian Date NNN day of the year | Air Temperature Max (Degrees Fahrenheit F) | Time Max Air Temperature HH:MM:SS This is the time of max air temp for the prior hour interval listed for record [Time]. | Air Temperature Min (Degrees Fahrenheit F) | Time Min Air Temperature HH:MM:SS This is the time of min air temp for the prior hour interval listed for record [Time]. | Air Temperature Observed (Degrees Fahrenheit F) This is an instantaneous reading at the record [Time]. | Relative Humidity Max (Percent) | Time Max Relative Humidity HH:MM:SS This is the time of max relative humidity for the prior hour interval listed for record [Time]. | Relative Humidity Min (Percent) | Time Min Relative Humidity HH:MM:SS This is the time of min relative humidity for the prior hour interval listed for record [Time]. | Relative Humidity Observed (Percent) This is an instantaneous reading at the record [Time]. | Precipitation (Inches n.nn) rain fall that occurred during the prior hour interval listed for record [Time]. | Wind Speed (Miles Per Hour) Resultant Speed that occurred during the prior hour interval listed for record [Time]. | Wind Direction (Degrees) Resultant Direction that occurred during the prior hour interval listed for record [Time]. | Solar Radiation (Langley's) that occurred during the prior hour interval listed for record [Time]. | Soil Temperature Average at 2 inch depth (Degrees Fahrenheit F) that occurred during the prior hour interval listed for record [Time]. | Soil Temperature Observed at 2 inch depth (Degrees Fahrenheit F) This is an instantaneous reading at the record [Time]. | Soil Temperature Average at 4 inch depth (Degrees Fahrenheit F) that occurred during the prior hour interval listed for record [Time]. | Soil Temperature Observed at 4 inch depth (Degrees Fahrenheit F) This is an instantaneous reading at the record [Time]. |
|---|---|---|---|---|---|---|---|---|---|---|---|---|---|---|---|---|---|---|---|---|
| 04/25/2026 | 0:00:00 | 115 | 65 | 23:03:01 | 65 | 23:38:01 | 65 | 94 | 23:00:01 | 94 | 23:56:02 | 94 | 0.01 | 5.0 | 192 | |||||
| 04/25/2026 | 1:00:00 | 115 | 65 | 0:01:00 | 64 | 0:48:01 | 64 | 95 | 0:57:02 | 94 | 0:00:03 | 94.6 | 0 | 4.2 | 206 | |||||
| 04/25/2026 | 2:00:00 | 115 | 64 | 1:00:03 | 64 | 1:59:04 | 64 | 95 | 1:52:01 | 95 | 1:00:05 | 94.8 | 0.01 | 1.8 | 229 | |||||
| 04/25/2026 | 3:00:00 | 115 | 64 | 2:36:02 | 64 | 2:01:03 | 64 | 95 | 2:42:03 | 95 | 2:27:01 | 94.8 | 0 | 3.7 | 332 | |||||
| 04/25/2026 | 4:00:00 | 115 | 64 | 3:10:01 | 63 | 3:58:01 | 63 | 95 | 3:26:01 | 95 | 3:00:01 | 94.8 | 0 | 2.0 | 272 | |||||
| 04/25/2026 | 5:00:00 | 115 | 63 | 4:00:01 | 63 | 4:49:05 | 63 | 95 | 4:00:01 | 94 | 4:57:03 | 94.5 | 0 | 1.1 | 233 | |||||
| 04/25/2026 | 6:00:00 | 115 | 63 | 5:31:00 | 63 | 5:00:01 | 63 | 95 | 5:01:02 | 94 | 6:00:00 | 93.9 | 0.01 | 1.3 | 83 | |||||
| 04/25/2026 | 7:00:00 | 115 | 64 | 6:57:03 | 63 | 6:02:02 | 64 | 94 | 6:00:03 | 93 | 6:57:02 | 93.5 | 0 | 1.3 | 93 | |||||
| 04/25/2026 | 8:00:00 | 115 | 65 | 7:52:01 | 64 | 7:02:02 | 65 | 94 | 7:54:01 | 94 | 7:00:01 | 94.2 | 0 | 2.8 | 42 | |||||
| 04/25/2026 | 9:00:00 | 115 | 70 | 8:42:02 | 65 | 8:00:01 | 69 | 95 | 8:13:03 | 93 | 8:54:02 | 93.3 | 0 | 0.1 | 49 | |||||
| 04/25/2026 | 10:00:00 | 115 | 75 | 9:58:04 | 69 | 9:00:01 | 75 | 94 | 9:01:04 | 76 | 9:59:01 | 76.9 | 0.01 | 1.1 | 129 | |||||
| 04/25/2026 | 11:00:00 | 115 | 77 | 10:44:01 | 74 | 10:21:05 | 75 | 78 | 10:22:05 | 70 | 10:46:05 | 74.99 | 0 | 1.8 | 172 | |||||
| 04/25/2026 | 12:00:00 | 115 | 77 | 11:19:02 | 74 | 11:27:05 | 76 | 79 | 11:35:02 | 71 | 11:05:03 | 75.25 | 0.1 | 2.2 | 237 | |||||
| 04/25/2026 | 13:00:00 | 115 | 80 | 12:44:03 | 75 | 12:11:01 | 77 | 79 | 12:03:04 | 65 | 12:43:05 | 68.24 | 0.12 | 2.9 | 220 | |||||
| 04/25/2026 | 14:00:00 | 115 | 81 | 13:44:03 | 77 | 13:00:04 | 81 | 73 | 13:03:02 | 60 | 13:30:05 | 62.18 | 0.08 | 3.0 | 256 | |||||
| 04/25/2026 | 15:00:00 | 115 | 83 | 14:58:04 | 80 | 14:31:01 | 83 | 69 | 14:25:03 | 60 | 14:41:05 | 60.38 | 0.08 | 2.6 | 331 | |||||
| 04/25/2026 | 16:00:00 | 115 | 84 | 15:13:03 | 81 | 15:58:01 | 81 | 66 | 16:00:00 | 57 | 15:13:04 | 65.64 | 0.05 | 1.6 | 290 | |||||
| 04/25/2026 | 17:00:00 | 115 | 85 | 16:17:02 | 81 | 16:00:01 | 84 | 66 | 16:00:03 | 55 | 16:58:03 | 55.44 | 0.03 | 1.7 | 231 | |||||
| 04/25/2026 | 18:00:00 | 115 | 84 | 17:00:01 | 81 | 17:38:02 | 82 | 65 | 17:46:02 | 55 | 17:00:01 | 63.62 | 0.01 | 0.5 | 243 | |||||
| 04/25/2026 | 19:00:00 | 115 | 82 | 18:00:01 | 74 | 19:00:00 | 74 | 83 | 19:00:00 | 63 | 18:00:05 | 83.2 | 0 | 0.0 | 164 | |||||
| 04/25/2026 | 20:00:00 | 115 | 74 | 19:00:01 | 71 | 19:59:04 | 71 | 90 | 19:59:05 | 83 | 19:00:01 | 90.4 | 0 | 0.0 | 155 | |||||
| 04/25/2026 | 21:00:00 | 115 | 71 | 20:00:01 | 69 | 20:56:04 | 69 | 93 | 21:00:00 | 91 | 20:00:05 | 93.4 | 0 | 0.1 | 168 | |||||
| 04/25/2026 | 22:00:00 | 115 | 69 | 21:03:04 | 68 | 21:56:05 | 68 | 94 | 21:58:01 | 93 | 21:00:01 | 94.2 | 0 | 0.0 | 0 | |||||
| 04/25/2026 | 23:00:00 | 115 | 68 | 22:13:02 | 68 | 22:46:05 | 68 | 94 | 22:49:03 | 94 | 22:00:01 | 94.4 | 0 | 0.0 | 168 | |||||
| 04/26/2026 | 0:00:00 | 116 | 68 | 23:41:03 | 67 | 23:58:03 | 67 | 94 | 23:15:02 | 94 | 23:40:00 | 94.3 | 0 | 0.0 | 72 | |||||
| 04/26/2026 | 1:00:00 | 116 | 67 | 0:00:01 | 66 | 0:37:05 | 67 | 95 | 0:05:02 | 94 | 0:54:00 | 94.1 | 0 | 0.0 | 0 | |||||
| 04/26/2026 | 2:00:00 | 116 | 67 | 1:12:01 | 66 | 2:00:00 | 66 | 94 | 1:32:03 | 94 | 1:51:03 | 94.1 | 0 | 0.0 | 0 | |||||
| 04/26/2026 | 3:00:00 | 116 | 66 | 2:33:00 | 66 | 2:01:01 | 66 | 94 | 2:00:01 | 93 | 2:54:00 | 93.3 | 0 | 0.0 | 0 | |||||
| 04/26/2026 | 4:00:00 | 116 | 66 | 3:02:00 | 65 | 4:00:00 | 65 | 94 | 3:08:02 | 93 | 3:22:04 | 93.3 | 0 | 0.0 | 0 | |||||
| 04/26/2026 | 5:00:00 | 116 | 65 | 4:13:02 | 64 | 4:59:03 | 64 | 93 | 4:02:03 | 93 | 4:12:02 | 93.1 | 0 | 0.0 | 269 | |||||
| 04/26/2026 | 6:00:00 | 116 | 66 | 5:58:00 | 64 | 5:00:05 | 66 | 93 | 5:00:01 | 93 | 5:39:04 | 92.6 | 0 | 0.0 | 0 | |||||
| 04/26/2026 | 7:00:00 | 116 | 67 | 6:59:03 | 65 | 6:19:01 | 67 | 93 | 6:57:00 | 93 | 6:01:05 | 93.1 | 0 | 0.1 | 215 | |||||
| 04/26/2026 | 8:00:00 | 116 | 69 | 7:59:00 | 67 | 7:22:00 | 69 | 94 | 7:45:04 | 91 | 7:59:04 | 91.3 | 0 | 1.8 | 257 | |||||
| 04/26/2026 | 9:00:00 | 116 | 74 | 9:00:00 | 69 | 8:00:02 | 74 | 92 | 8:02:01 | 80 | 8:57:04 | 82.2 | 0 | 3.2 | 310 | |||||
| 04/26/2026 | 10:00:00 | 116 | 79 | 9:58:01 | 74 | 9:01:01 | 79 | 83 | 9:01:04 | 68 | 9:58:03 | 70.64 | 0 | 2.2 | 250 | |||||
| 04/26/2026 | 11:00:00 | 116 | 82 | 11:00:00 | 78 | 10:11:02 | 82 | 74 | 10:22:00 | 61 | 10:56:01 | 64.32 | 0 | 2.5 | 356 | |||||
| 04/26/2026 | 12:00:00 | 116 | 83 | 12:00:00 | 80 | 11:18:00 | 83 | 70 | 11:25:00 | 61 | 11:48:01 | 65.8 | 0 | 2.1 | 18 | |||||
| 04/26/2026 | 13:00:00 | 116 | 87 | 12:46:05 | 82 | 12:19:03 | 84 | 66 | 12:09:05 | 55 | 12:47:00 | 58.21 | 0 | 2.0 | 90 | |||||
| 04/26/2026 | 14:00:00 | 116 | 87 | 13:49:01 | 82 | 13:16:03 | 85 | 65 | 13:19:05 | 52 | 13:49:02 | 59.98 | 0 | 1.5 | 148 | |||||
| 04/26/2026 | 15:00:00 | 116 | 87 | 15:00:00 | 82 | 14:40:04 | 87 | 65 | 14:42:05 | 52 | 14:58:03 | 53.34 | 0 | 1.5 | 125 | |||||
| 04/26/2026 | 16:00:00 | 116 | 88 | 15:28:01 | 84 | 15:44:01 | 87 | 58 | 15:44:05 | 50 | 15:30:05 | 52.39 | 0 | 1.9 | 169 | |||||
| 04/26/2026 | 17:00:00 | 116 | 88 | 16:46:05 | 82 | 16:22:02 | 87 | 61 | 16:32:02 | 52 | 16:59:03 | 52.32 | 0 | 0.8 | 137 | |||||
| 04/26/2026 | 18:00:00 | 116 | 87 | 17:00:01 | 82 | 17:59:04 | 82 | 63 | 17:58:02 | 52 | 17:01:02 | 62.91 | 0 | 0.9 | 115 | |||||
| 04/26/2026 | 19:00:00 | 116 | 82 | 18:00:01 | 77 | 18:59:05 | 77 | 78 | 19:00:00 | 63 | 18:00:02 | 77.64 | 0 | 0.2 | 87 | |||||
| 04/26/2026 | 20:00:00 | 116 | 77 | 19:00:01 | 74 | 19:59:03 | 74 | 83 | 19:50:04 | 78 | 19:01:00 | 82.2 | 0 | 0.3 | 80 | |||||
| 04/26/2026 | 21:00:00 | 116 | 74 | 20:00:01 | 72 | 20:59:05 | 72 | 88 | 21:00:00 | 82 | 20:01:05 | 88.3 | 0 | 0.1 | 163 | |||||
| 04/26/2026 | 22:00:00 | 116 | 72 | 21:00:01 | 70 | 21:51:05 | 70 | 92 | 21:59:05 | 88 | 21:00:01 | 92.3 | 0 | 0.0 | 0 | |||||
| 04/26/2026 | 23:00:00 | 116 | 70 | 22:00:01 | 69 | 22:18:05 | 69 | 94 | 23:00:00 | 92 | 22:00:01 | 94 | 0 | 0.0 | 0 | |||||
| 04/27/2026 | 0:00:00 | 117 | 69 | 23:36:05 | 68 | 23:15:02 | 69 | 94 | 23:17:00 | 94 | 23:01:00 | 94.2 | 0 | 0.0 | 145 | |||||
| 04/27/2026 | 1:00:00 | 117 | 69 | 0:56:01 | 68 | 0:26:01 | 69 | 94 | 0:51:00 | 94 | 0:01:04 | 94.3 | 0 | 0.0 | 134 | |||||
| 04/27/2026 | 2:00:00 | 117 | 69 | 1:11:01 | 68 | 1:57:01 | 68 | 94 | 1:01:04 | 94 | 1:45:03 | 94.2 | 0 | 0.1 | 156 | |||||
| 04/27/2026 | 3:00:00 | 117 | 68 | 2:00:02 | 68 | 2:58:04 | 68 | 94 | 2:19:05 | 94 | 2:53:00 | 94.3 | 0 | 0.2 | 163 | |||||
| 04/27/2026 | 4:00:00 | 117 | 68 | 3:06:02 | 67 | 3:58:02 | 67 | 95 | 3:52:03 | 94 | 3:02:01 | 94.6 | 0 | 0.0 | 0 | |||||
| 04/27/2026 | 5:00:00 | 117 | 67 | 4:00:01 | 66 | 4:48:05 | 67 | 95 | 4:54:05 | 95 | 4:02:00 | 94.8 | 0 | 0.0 | 0 | |||||
| 04/27/2026 | 6:00:00 | 117 | 68 | 5:59:03 | 66 | 5:19:00 | 68 | 95 | 5:17:01 | 95 | 5:49:00 | 94.8 | 0 | 0.0 | 170 | |||||
| 04/27/2026 | 7:00:00 | 117 | 72 | 7:00:00 | 68 | 6:00:01 | 72 | 95 | 6:05:03 | 91 | 7:00:00 | 90.7 | 0 | 1.1 | 163 | |||||
| 04/27/2026 | 8:00:00 | 117 | 77 | 8:00:00 | 72 | 7:00:01 | 77 | 91 | 7:00:03 | 82 | 7:58:01 | 81.7 | 0 | 3.9 | 158 | |||||
| 04/27/2026 | 9:00:00 | 117 | 82 | 8:59:04 | 77 | 8:00:01 | 82 | 82 | 8:00:03 | 72 | 8:59:04 | 72.27 | 0 | 3.9 | 158 | |||||
| 04/27/2026 | 10:00:00 | 117 | 83 | 9:58:05 | 81 | 9:28:00 | 83 | 74 | 9:00:02 | 64 | 9:58:04 | 65.17 | 0 | 6.2 | 161 | |||||
| 04/27/2026 | 11:00:00 | 117 | 85 | 11:00:00 | 83 | 10:00:04 | 85 | 66 | 10:05:02 | 57 | 10:59:05 | 57.02 | 0 | 6.8 | 157 | |||||
| 04/27/2026 | 12:00:00 | 117 | 87 | 11:49:02 | 85 | 11:00:01 | 86 | 59 | 11:00:03 | 52 | 11:30:01 | 54.1 | 0 | 6.8 | 169 | |||||
| 04/27/2026 | 13:00:00 | 117 | 90 | 12:57:04 | 86 | 12:01:04 | 89 | 54 | 12:02:00 | 50 | 12:58:03 | 51.06 | 0 | 6.8 | 168 | |||||
| 04/27/2026 | 14:00:00 | 117 | 90 | 13:25:02 | 88 | 13:31:00 | 89 | 56 | 13:31:03 | 50 | 13:59:04 | 50.64 | 0 | 6.3 | 171 | |||||
| 04/27/2026 | 15:00:00 | 117 | 90 | 14:53:03 | 89 | 14:32:05 | 90 | 53 | 14:48:04 | 48 | 14:53:05 | 49.87 | 0 | 6.7 | 168 | |||||
| 04/27/2026 | 16:00:00 | 117 | 91 | 15:31:02 | 88 | 15:46:05 | 89 | 53 | 15:25:02 | 48 | 15:34:04 | 52.22 | 0 | 6.2 | 179 | |||||
| 04/27/2026 | 17:00:00 | 117 | 89 | 16:00:01 | 87 | 16:26:01 | 89 | 54 | 16:26:05 | 51 | 16:12:04 | 51.8 | 0 | 5.7 | 179 | |||||
| 04/27/2026 | 18:00:00 | 117 | 89 | 17:01:02 | 85 | 18:00:00 | 85 | 60 | 18:00:00 | 52 | 17:01:04 | 59.62 | 0 | 4.0 | 168 | |||||
| 04/27/2026 | 19:00:00 | 117 | 85 | 18:00:01 | 80 | 18:59:04 | 80 | 71 | 18:56:03 | 60 | 18:01:01 | 71.31 | 0 | 0.8 | 163 | |||||
| 04/27/2026 | 20:00:00 | 117 | 80 | 19:27:02 | 80 | 19:59:00 | 80 | 72 | 19:44:01 | 70 | 19:26:00 | 71.84 | 0 | 1.2 | 166 | |||||
| 04/27/2026 | 21:00:00 | 117 | 80 | 20:00:01 | 78 | 20:59:04 | 78 | 76 | 20:44:00 | 72 | 20:02:00 | 75.27 | 0 | 1.4 | 165 | |||||
| 04/27/2026 | 22:00:00 | 117 | 78 | 21:45:01 | 78 | 21:23:00 | 78 | 76 | 21:21:02 | 73 | 21:51:03 | 73.17 | 0 | 3.1 | 179 | |||||
| 04/27/2026 | 23:00:00 | 117 | 78 | 22:00:01 | 77 | 22:37:05 | 77 | 75 | 22:28:01 | 73 | 22:59:00 | 72.63 | 0 | 4.9 | 181 | |||||
| 04/28/2026 | 0:00:00 | 118 | 77 | 23:00:02 | 76 | 0:00:00 | 76 | 73 | 23:11:01 | 70 | 23:52:04 | 70.09 | 0 | 5.3 | 196 | |||||
| 04/28/2026 | 1:00:00 | 118 | 76 | 0:00:02 | 75 | 0:59:00 | 75 | 74 | 0:58:04 | 70 | 0:03:03 | 73.55 | 0 | 4.7 | 203 | |||||
| 04/28/2026 | 2:00:00 | 118 | 75 | 1:00:01 | 73 | 1:59:01 | 73 | 79 | 2:00:00 | 74 | 1:00:01 | 78.72 | 0 | 3.4 | 186 | |||||
| 04/28/2026 | 3:00:00 | 118 | 73 | 2:15:01 | 72 | 2:59:03 | 72 | 81 | 2:59:04 | 79 | 2:00:04 | 81.2 | 0 | 2.0 | 173 | |||||
| 04/28/2026 | 4:00:00 | 118 | 72 | 3:00:01 | 71 | 3:59:03 | 71 | 85 | 4:00:00 | 81 | 3:00:05 | 85.1 | 0 | 1.5 | 178 | |||||
| 04/28/2026 | 5:00:00 | 118 | 71 | 4:00:01 | 71 | 4:59:03 | 71 | 89 | 4:59:04 | 85 | 4:00:01 | 89 | 0 | 1.8 | 169 | |||||
| 04/28/2026 | 6:00:00 | 118 | 71 | 5:52:02 | 70 | 5:17:01 | 71 | 91 | 5:59:05 | 89 | 5:01:02 | 90.8 | 0 | 1.4 | 169 | |||||
| 04/28/2026 | 7:00:00 | 118 | 72 | 6:59:03 | 70 | 6:34:01 | 72 | 92 | 6:43:02 | 90 | 7:00:00 | 90.1 | 0 | 0.6 | 151 | |||||
| 04/28/2026 | 8:00:00 | 118 | 73 | 7:11:02 | 71 | 7:59:00 | 71 | 92 | 8:00:00 | 89 | 7:12:05 | 91.8 | 0 | 2.6 | 71 | |||||
| 04/28/2026 | 9:00:00 | 118 | 72 | 8:44:04 | 71 | 8:01:03 | 72 | 93 | 8:59:05 | 91 | 8:46:03 | 92.8 | 0.01 | 4.9 | 70 | |||||
| 04/28/2026 | 10:00:00 | 118 | 72 | 9:06:00 | 71 | 9:43:01 | 71 | 95 | 9:56:03 | 93 | 9:00:04 | 94.5 | 0.01 | 1.7 | 86 | |||||
| 04/28/2026 | 11:00:00 | 118 | 71 | 10:02:03 | 71 | 10:57:00 | 71 | 95 | 10:07:05 | 94 | 10:58:00 | 94.4 | 0 | 2.2 | 67 | |||||
| 04/28/2026 | 12:00:00 | 118 | 71 | 11:13:03 | 71 | 11:32:05 | 71 | 94 | 11:00:01 | 94 | 11:52:04 | 94.2 | 0 | 2.1 | 92 | |||||
| 04/28/2026 | 13:00:00 | 118 | 71 | 12:25:00 | 71 | 12:00:02 | 71 | 94 | 12:27:05 | 94 | 12:06:01 | 94.2 | 0.01 | 2.1 | 129 | |||||
| 04/28/2026 | 14:00:00 | 118 | 73 | 13:43:01 | 71 | 13:17:01 | 72 | 95 | 13:57:00 | 94 | 13:21:00 | 94.5 | 0 | 2.8 | 141 | |||||
| 04/28/2026 | 15:00:00 | 118 | 73 | 14:46:01 | 72 | 14:06:00 | 72 | 95 | 14:54:03 | 94 | 14:22:00 | 94.7 | 0 | 3.4 | 148 | |||||
| 04/28/2026 | 16:00:00 | 118 | 72 | 15:10:02 | 71 | 15:57:00 | 71 | 95 | 15:17:00 | 95 | 15:07:05 | 94.8 | 0.01 | 3.2 | 156 | |||||
| 04/28/2026 | 17:00:00 | 118 | 72 | 16:01:04 | 70 | 16:58:05 | 70 | 95 | 16:53:04 | 95 | 16:37:01 | 94.8 | 0 | 3.0 | 165 | |||||
| 04/28/2026 | 18:00:00 | 118 | 70 | 17:00:01 | 69 | 17:59:05 | 69 | 95 | 17:57:00 | 95 | 17:16:00 | 94.8 | 0.01 | 5.3 | 150 | |||||
| 04/28/2026 | 19:00:00 | 118 | 69 | 18:03:02 | 69 | 18:50:03 | 69 | 95 | 18:15:02 | 95 | 18:58:03 | 94.7 | 0 | 3.9 | 160 | |||||
| 04/28/2026 | 20:00:00 | 118 | 69 | 19:00:01 | 68 | 19:58:02 | 68 | 95 | 19:00:04 | 95 | 19:55:03 | 94.6 | 0 | 1.8 | 121 | |||||
| 04/28/2026 | 21:00:00 | 118 | 68 | 20:41:02 | 68 | 20:16:01 | 68 | 95 | 20:00:01 | 94 | 21:00:00 | 94.2 | 0 | 2.2 | 106 | |||||
| 04/28/2026 | 22:00:00 | 118 | 69 | 21:52:02 | 68 | 21:00:01 | 69 | 94 | 22:00:00 | 94 | 21:44:01 | 94.3 | 0 | 2.7 | 58 | |||||
| 04/28/2026 | 23:00:00 | 118 | 69 | 22:49:05 | 68 | 22:12:00 | 69 | 94 | 22:05:03 | 94 | 22:44:02 | 94 | 0.01 | 1.4 | 145 | |||||
| 04/29/2026 | 0:00:00 | 119 | 70 | 23:43:05 | 68 | 0:00:00 | 68 | 95 | 0:00:00 | 94 | 23:40:05 | 94.5 | 0 | 4.5 | 171 | |||||
| 04/29/2026 | 1:00:00 | 119 | 68 | 0:00:01 | 67 | 0:39:02 | 68 | 95 | 0:39:00 | 95 | 0:00:01 | 95.1 | 0 | 2.3 | 216 | |||||
| 04/29/2026 | 2:00:00 | 119 | 69 | 1:52:01 | 68 | 1:02:03 | 69 | 95 | 1:04:05 | 95 | 1:59:05 | 94.5 | 0 | 0.1 | 160 | |||||
| 04/29/2026 | 3:00:00 | 119 | 69 | 2:59:04 | 68 | 2:04:00 | 69 | 95 | 2:22:05 | 94 | 2:57:05 | 94.4 | 0 | 3.8 | 122 | |||||
| 04/29/2026 | 4:00:00 | 119 | 70 | 3:20:00 | 69 | 3:00:01 | 70 | 94 | 3:03:05 | 94 | 3:59:05 | 94.1 | 0.01 | 2.3 | 170 | |||||
| 04/29/2026 | 5:00:00 | 119 | 70 | 4:57:03 | 70 | 4:28:05 | 70 | 94 | 4:07:05 | 94 | 4:56:01 | 93.9 | 0 | 1.0 | 162 | |||||
| 04/29/2026 | 6:00:00 | 119 | 70 | 5:59:00 | 70 | 5:19:05 | 70 | 94 | 5:00:04 | 93 | 5:55:02 | 93.4 | 0 | 3.8 | 170 | |||||
| 04/29/2026 | 7:00:00 | 119 | 70 | 7:00:00 | 70 | 6:00:01 | 70 | 94 | 6:14:02 | 93 | 6:52:04 | 93.5 | 0 | 2.5 | 172 | |||||
| 04/29/2026 | 8:00:00 | 119 | 73 | 7:35:02 | 70 | 7:00:03 | 72 | 94 | 7:40:00 | 94 | 7:00:02 | 94.1 | 0.01 | 2.1 | 168 | |||||
| 04/29/2026 | 9:00:00 | 119 | 76 | 8:56:02 | 72 | 8:00:01 | 76 | 95 | 8:25:00 | 92 | 8:59:02 | 92.7 | 0.01 | 4.1 | 182 | |||||
| 04/29/2026 | 10:00:00 | 119 | 77 | 9:59:05 | 75 | 9:41:03 | 77 | 93 | 9:00:02 | 90 | 9:20:02 | 90.6 | 0 | 2.4 | 200 | |||||
| 04/29/2026 | 11:00:00 | 119 | 80 | 11:00:00 | 77 | 10:00:01 | 80 | 91 | 10:00:01 | 83 | 10:22:01 | 86.1 | 0.01 | 3.9 | 204 | |||||
| 04/29/2026 | 12:00:00 | 119 | 83 | 11:55:05 | 79 | 11:24:03 | 83 | 87 | 11:47:03 | 80 | 11:56:01 | 83.4 | 0.01 | 3.8 | 250 | |||||
| 04/29/2026 | 13:00:00 | 119 | 84 | 12:28:03 | 81 | 12:48:03 | 82 | 84 | 12:04:03 | 75 | 12:30:04 | 78.72 | 0 | 2.0 | 276 | |||||
| 04/29/2026 | 14:00:00 | 119 | 84 | 13:14:00 | 82 | 13:38:05 | 83 | 79 | 13:56:03 | 73 | 13:15:00 | 74.46 | 0.01 | 0.6 | 272 | |||||
| 04/29/2026 | 15:00:00 | 119 | 84 | 14:21:04 | 83 | 15:00:00 | 83 | 80 | 14:19:00 | 72 | 14:55:00 | 73.04 | 0.01 | 0.7 | 347 | |||||
| 04/29/2026 | 16:00:00 | 119 | 83 | 15:07:02 | 80 | 15:59:03 | 80 | 85 | 15:39:02 | 73 | 15:04:05 | 83.5 | 0 | 2.8 | 2 | |||||
| 04/29/2026 | 17:00:00 | 119 | 80 | 16:01:04 | 71 | 17:00:00 | 71 | 85 | 16:11:05 | 71 | 16:45:01 | 81.3 | 0 | 5.4 | 318 | |||||
| 04/29/2026 | 18:00:00 | 119 | 71 | 17:00:01 | 69 | 17:59:00 | 69 | 88 | 18:00:00 | 81 | 17:26:04 | 87.9 | 0.01 | 3.8 | 175 | |||||
| 04/29/2026 | 19:00:00 | 119 | 69 | 18:47:02 | 68 | 18:39:01 | 69 | 95 | 19:00:00 | 88 | 18:00:01 | 94.8 | 0 | 2.9 | 259 | |||||
| 04/29/2026 | 20:00:00 | 119 | 69 | 19:09:04 | 68 | 20:00:00 | 68 | 95 | 19:37:02 | 95 | 19:03:00 | 95.1 | 0 | 2.4 | 22 | |||||
| 04/29/2026 | 21:00:00 | 119 | 69 | 20:58:05 | 68 | 20:06:04 | 69 | 95 | 20:20:02 | 95 | 20:57:05 | 95 | 0 | 0.0 | 178 | |||||
| 04/29/2026 | 22:00:00 | 119 | 69 | 21:23:02 | 68 | 22:00:00 | 68 | 95 | 21:54:01 | 95 | 21:22:04 | 95 | 0.01 | 2.7 | 202 | |||||
| 04/29/2026 | 23:00:00 | 119 | 68 | 22:00:02 | 66 | 22:59:02 | 66 | 95 | 22:57:04 | 95 | 22:00:01 | 95.3 | 0 | 1.8 | 149 | |||||
| 04/30/2026 | 0:00:00 | 120 | 67 | 23:59:05 | 66 | 23:15:03 | 67 | 95 | 23:08:01 | 95 | 23:53:04 | 95.2 | 0 | 0.6 | 252 | |||||
| 04/30/2026 | 1:00:00 | 120 | 68 | 0:22:05 | 65 | 0:58:01 | 66 | 96 | 0:56:00 | 95 | 0:22:03 | 95.6 | 0 | 5.0 | 325 | |||||
| 04/30/2026 | 2:00:00 | 120 | 66 | 1:04:00 | 64 | 2:00:00 | 64 | 96 | 1:25:02 | 95 | 1:59:03 | 94.6 | 0 | 9.2 | 356 | |||||
| 04/30/2026 | 3:00:00 | 120 | 64 | 2:00:01 | 62 | 3:00:00 | 62 | 95 | 2:03:02 | 92 | 2:23:02 | 94.4 | 0.01 | 8.5 | 17 | |||||
| 04/30/2026 | 4:00:00 | 120 | 62 | 3:00:01 | 62 | 3:36:01 | 62 | 96 | 3:13:04 | 94 | 3:00:01 | 94.8 | 0 | 6.1 | 16 | |||||
| 04/30/2026 | 5:00:00 | 120 | 62 | 4:00:01 | 62 | 4:34:05 | 62 | 95 | 4:10:01 | 92 | 4:48:00 | 93.2 | 0 | 5.4 | 17 | |||||
| 04/30/2026 | 6:00:00 | 120 | 62 | 5:00:01 | 61 | 5:46:03 | 61 | 95 | 5:55:05 | 93 | 5:01:03 | 94.6 | 0 | 6.1 | 352 | |||||
| 04/30/2026 | 7:00:00 | 120 | 62 | 6:31:05 | 61 | 6:00:02 | 62 | 95 | 6:03:04 | 94 | 6:56:05 | 93.9 | 0 | 7.6 | 10 | |||||
| 04/30/2026 | 8:00:00 | 120 | 62 | 7:48:03 | 62 | 7:08:00 | 62 | 94 | 7:01:05 | 86 | 7:54:03 | 88.9 | 0.01 | 8.1 | 14 | |||||
| 04/30/2026 | 9:00:00 | 120 | 63 | 8:57:03 | 62 | 8:10:04 | 63 | 89 | 8:06:05 | 80 | 8:51:03 | 83.6 | 0 | 7.0 | 24 | |||||
| 04/30/2026 | 10:00:00 | 120 | 64 | 10:00:00 | 62 | 9:04:05 | 64 | 85 | 9:08:03 | 76 | 9:29:02 | 82.7 | 0 | 5.7 | 32 | |||||
| 04/30/2026 | 11:00:00 | 120 | 67 | 10:36:03 | 64 | 10:02:04 | 67 | 82 | 10:05:02 | 71 | 10:59:03 | 73.02 | 0 | 5.2 | 5 | |||||
| 04/30/2026 | 12:00:00 | 120 | 69 | 11:52:05 | 67 | 11:12:02 | 68 | 80 | 11:28:02 | 70 | 11:56:04 | 72.55 | 0 | 5.4 | 8 | |||||
| 04/30/2026 | 13:00:00 | 120 | 71 | 12:52:05 | 68 | 12:00:01 | 70 | 79 | 12:01:03 | 65 | 12:56:02 | 72.85 | 0.01 | 6.2 | 2 | |||||
| 04/30/2026 | 14:00:00 | 120 | 71 | 13:46:04 | 69 | 13:03:00 | 70 | 77 | 13:07:04 | 61 | 13:44:00 | 62.86 | 0 | 6.8 | 5 | |||||
| 04/30/2026 | 15:00:00 | 120 | 71 | 14:21:00 | 70 | 14:45:00 | 71 | 70 | 14:58:04 | 59 | 14:10:00 | 68.42 | 0 | 5.8 | 16 | |||||
| 04/30/2026 | 16:00:00 | 120 | 71 | 15:10:01 | 70 | 15:51:01 | 70 | 71 | 15:05:00 | 58 | 15:50:05 | 67.19 | 0 | 5.6 | 9 | |||||
| 04/30/2026 | 17:00:00 | 120 | 70 | 16:04:03 | 67 | 17:00:00 | 67 | 74 | 16:40:00 | 61 | 16:09:03 | 70.86 | 0 | 6.3 | 0 | |||||
| 04/30/2026 | 18:00:00 | 120 | 67 | 17:00:01 | 66 | 17:56:03 | 66 | 75 | 17:59:03 | 67 | 17:44:02 | 74.37 | 0 | 5.2 | 15 | |||||
| 04/30/2026 | 19:00:00 | 120 | 66 | 18:00:01 | 65 | 18:59:05 | 65 | 80 | 18:30:01 | 72 | 18:59:05 | 72.57 | 0.01 | 3.8 | 9 | |||||
| 04/30/2026 | 20:00:00 | 120 | 65 | 19:00:05 | 64 | 19:56:05 | 64 | 77 | 19:53:01 | 71 | 19:13:02 | 76.73 | 0 | 4.2 | 23 | |||||
| 04/30/2026 | 21:00:00 | 120 | 64 | 20:00:01 | 63 | 20:37:05 | 63 | 79 | 20:46:00 | 74 | 20:55:03 | 75.58 | 0 | 2.3 | 23 | |||||
| 04/30/2026 | 22:00:00 | 120 | 63 | 21:00:02 | 62 | 21:59:04 | 62 | 82 | 22:00:00 | 74 | 21:03:00 | 81.6 | 0 | 2.9 | 22 | |||||
| 04/30/2026 | 23:00:00 | 120 | 62 | 22:00:01 | 60 | 22:27:03 | 62 | 88 | 22:24:00 | 80 | 22:57:05 | 80.5 | 0 | 1.4 | 41 | |||||
| 05/01/2026 | 0:00:00 | 121 | 62 | 23:23:04 | 60 | 23:59:02 | 60 | 87 | 0:00:00 | 79 | 23:11:04 | 86.9 | 0 | 0.3 | 351 | |||||
| 05/01/2026 | 1:00:00 | 121 | 61 | 0:33:05 | 60 | 0:12:04 | 61 | 88 | 0:10:00 | 81 | 0:31:02 | 82.9 | 0 | 2.2 | 3 | |||||
| 05/01/2026 | 2:00:00 | 121 | 61 | 1:02:05 | 59 | 1:59:01 | 59 | 84 | 1:54:00 | 81 | 1:16:04 | 83.6 | 0 | 3.2 | 25 | |||||
| 05/01/2026 | 3:00:00 | 121 | 59 | 2:04:03 | 58 | 2:27:02 | 58 | 85 | 2:11:05 | 79 | 2:45:00 | 81.5 | 0 | 2.6 | 25 | |||||
| 05/01/2026 | 4:00:00 | 121 | 59 | 3:47:02 | 58 | 3:25:03 | 58 | 87 | 3:57:01 | 80 | 3:36:02 | 84.3 | 0 | 2.8 | 16 | |||||
| 05/01/2026 | 5:00:00 | 121 | 58 | 4:05:00 | 58 | 4:53:05 | 58 | 85 | 4:01:04 | 82 | 4:17:04 | 84.3 | 0 | 3.6 | 14 | |||||
| 05/01/2026 | 6:00:00 | 121 | 58 | 5:54:05 | 57 | 5:16:02 | 58 | 87 | 5:08:02 | 84 | 5:00:02 | 85.7 | 0 | 2.6 | 353 | |||||
| 05/01/2026 | 7:00:00 | 121 | 58 | 6:50:05 | 58 | 6:15:04 | 58 | 86 | 6:38:01 | 83 | 6:48:00 | 85.9 | 0.01 | 2.0 | 11 | |||||
| 05/01/2026 | 8:00:00 | 121 | 59 | 7:30:02 | 58 | 7:02:02 | 58 | 86 | 7:51:02 | 83 | 7:58:01 | 83.7 | 0 | 4.7 | 352 | |||||
| 05/01/2026 | 9:00:00 | 121 | 59 | 8:57:02 | 58 | 8:02:04 | 59 | 86 | 8:08:00 | 78 | 8:35:03 | 78.59 | 0 | 4.2 | 15 | |||||
| 05/01/2026 | 10:00:00 | 121 | 60 | 10:00:00 | 59 | 9:00:01 | 60 | 83 | 9:41:02 | 78 | 9:12:00 | 81.5 | 0 | 4.7 | 355 | |||||
| 05/01/2026 | 11:00:00 | 121 | 63 | 10:57:03 | 60 | 10:00:03 | 63 | 82 | 10:01:05 | 71 | 10:58:05 | 71.45 | 0 | 4.2 | 5 | |||||
| 05/01/2026 | 12:00:00 | 121 | 64 | 11:28:02 | 63 | 11:05:04 | 63 | 75 | 11:07:01 | 68 | 11:38:05 | 70.05 | 0 | 3.5 | 19 | |||||
| 05/01/2026 | 13:00:00 | 121 | 64 | 12:35:00 | 63 | 12:00:01 | 64 | 76 | 12:16:01 | 66 | 12:59:04 | 67.84 | 0 | 4.4 | 339 | |||||
| 05/01/2026 | 14:00:00 | 121 | 66 | 13:43:01 | 64 | 13:01:00 | 64 | 73 | 13:03:05 | 62 | 13:23:05 | 66.21 | 0 | 7.4 | 10 | |||||
| 05/01/2026 | 15:00:00 | 121 | 65 | 14:08:02 | 64 | 14:54:03 | 64 | 72 | 14:58:00 | 64 | 14:12:01 | 69.75 | 0 | 5.2 | 18 | |||||
| 05/01/2026 | 16:00:00 | 121 | 64 | 15:02:04 | 62 | 15:59:01 | 62 | 74 | 15:15:04 | 66 | 15:41:01 | 70.83 | 0 | 5.0 | 15 | |||||
| 05/01/2026 | 17:00:00 | 121 | 62 | 16:00:01 | 61 | 16:45:04 | 62 | 81 | 17:00:00 | 70 | 16:07:04 | 81.4 | 0 | 2.9 | 17 | |||||
| 05/01/2026 | 18:00:00 | 121 | 62 | 17:00:03 | 59 | 17:47:01 | 59 | 91 | 17:59:05 | 82 | 17:00:01 | 91.4 | 0 | 0.0 | 0 | |||||
| 05/01/2026 | 19:00:00 | 121 | 60 | 18:16:02 | 58 | 19:00:00 | 58 | 93 | 18:57:04 | 91 | 18:01:01 | 93.2 | 0 | 0.0 | 0 | |||||
| 05/01/2026 | 20:00:00 | 121 | 59 | 19:38:00 | 58 | 19:24:00 | 59 | 95 | 19:31:01 | 93 | 20:00:00 | 92.8 | 0 | 0.3 | 25 | |||||
| 05/01/2026 | 21:00:00 | 121 | 60 | 20:47:04 | 59 | 20:00:02 | 60 | 93 | 20:03:05 | 88 | 20:34:05 | 88.5 | 0 | 1.1 | 357 | |||||
| 05/01/2026 | 22:00:00 | 121 | 60 | 21:06:05 | 59 | 21:54:00 | 59 | 89 | 21:22:00 | 87 | 21:54:05 | 87.7 | 0 | 1.7 | 345 | |||||
| 05/01/2026 | 23:00:00 | 121 | 59 | 22:06:00 | 58 | 22:59:03 | 58 | 92 | 22:58:03 | 88 | 22:00:03 | 92.2 | 0.01 | 0.5 | 330 | |||||
| 05/02/2026 | 0:00:00 | 122 | 59 | 23:12:03 | 58 | 23:56:01 | 58 | 95 | 23:43:00 | 92 | 23:00:02 | 94.4 | 0 | 1.7 | 300 | |||||
| 05/02/2026 | 1:00:00 | 122 | 59 | 0:47:05 | 58 | 0:02:00 | 59 | 94 | 0:00:01 | 84 | 0:57:01 | 84.3 | 0 | 5.3 | 350 | |||||
| 05/02/2026 | 2:00:00 | 122 | 59 | 1:00:01 | 58 | 1:52:05 | 58 | 85 | 1:04:02 | 73 | 1:59:04 | 73.16 | 0 | 4.9 | 12 | |||||
| 05/02/2026 | 3:00:00 | 122 | 58 | 2:00:03 | 57 | 2:59:04 | 57 | 77 | 2:58:01 | 72 | 2:54:03 | 74.21 | 0 | 4.9 | 10 | |||||
| 05/02/2026 | 4:00:00 | 122 | 57 | 3:00:05 | 56 | 3:58:00 | 56 | 77 | 3:20:02 | 72 | 3:37:05 | 74.56 | 0 | 5.0 | 356 | |||||
| 05/02/2026 | 5:00:00 | 122 | 57 | 4:59:00 | 56 | 4:07:01 | 56 | 77 | 4:06:04 | 68 | 4:57:02 | 71.34 | 0 | 4.3 | 4 | |||||
| 05/02/2026 | 6:00:00 | 122 | 56 | 5:00:01 | 55 | 5:42:02 | 56 | 75 | 5:36:03 | 67 | 5:10:05 | 72.86 | 0 | 5.4 | 354 | |||||
| 05/02/2026 | 7:00:00 | 122 | 57 | 6:54:02 | 56 | 6:02:01 | 56 | 75 | 6:30:04 | 69 | 6:57:03 | 71.68 | 0 | 6.0 | 349 | |||||
| 05/02/2026 | 8:00:00 | 122 | 59 | 7:54:04 | 56 | 7:00:02 | 59 | 75 | 7:08:05 | 61 | 7:55:00 | 61.91 | 0 | 7.0 | 7 | |||||
| 05/02/2026 | 9:00:00 | 122 | 61 | 8:53:05 | 59 | 8:00:01 | 61 | 67 | 8:02:04 | 55 | 8:56:05 | 61.81 | 0 | 7.9 | 12 | |||||
| 05/02/2026 | 10:00:00 | 122 | 65 | 10:00:00 | 62 | 9:01:01 | 65 | 63 | 9:05:03 | 47 | 9:45:01 | 51.75 | 0 | 8.1 | 8 | |||||
| 05/02/2026 | 11:00:00 | 122 | 67 | 11:00:00 | 65 | 10:03:01 | 67 | 57 | 10:03:05 | 41 | 10:57:03 | 48.47 | 0 | 9.9 | 353 | |||||
| 05/02/2026 | 12:00:00 | 122 | 69 | 11:58:00 | 67 | 11:12:04 | 69 | 51 | 11:57:03 | 39 | 11:30:03 | 42.9 | 0 | 11.0 | 359 | |||||
| 05/02/2026 | 13:00:00 | 122 | 70 | 12:59:01 | 68 | 12:02:03 | 70 | 50 | 12:17:04 | 37 | 12:59:02 | 38.72 | 0 | 10.1 | 8 | |||||
| 05/02/2026 | 14:00:00 | 122 | 72 | 13:59:02 | 70 | 13:01:03 | 72 | 48 | 13:09:01 | 35 | 13:49:04 | 41.03 | 0 | 10.0 | 348 | |||||
| Average | 70.61 | 68.75 | 69.72 | 84.05 | 78.67 | 81.23 | 0 | 3.1 | 0 | 0 | 0 | 0 | 0 | |||||||
| Total | 0.72 |